Windham, NY

8:49 PM EST on November 27, 2014 (GMT -0500)
Albany International | Change Station
CLOSE
Current Station
Airport
Location: Albany,
Elevation: 292 ft
Nearby Weather Stations

Elev 292 ft 42.75 °N, 73.80 °W | Updated 58 minutes ago

Overcast
Overcast
29 °F
Feels Like 29 °F
N
0
Wind Variable Wind from North

Today
High -- | Low -- °F
--% Chance of Precip.
Yesterday
High -- | Low -- °F
Precip. -- in
7:02 AM 4:27 PM
Waxing Crescent, 35% visible
Pressure 30.06 in
Visibility 3.0 miles
Clouds Few 800 ft
Overcast 1900 ft
Dew Point 26 °F
Humidity 89%
Rainfall 0.07 in
Snow Depth Not available.
UV 0 out of 12
Pollen .10 out of 12
Air Quality Not available.
Flu Activity Not available.
METAR KALB 280051Z 00000KT 3SM -SN BR FEW008 OVC019 M02/M03 A3004 RMK AO2 SLP177 VIS E-S 2 P0001 T10171033

More Conditions Fewer Conditions

Pressure 30.06 in
Visibility 3.0 miles
Clouds Few 800 ft
Overcast 1900 ft
Dew Point 26 °F
Humidity 89%
Rainfall 0.07 in
Snow Depth Not available.
UV 0 out of 12
Pollen .10 out of 12
Air Quality Not available.
Flu Activity Not available.
METAR KALB 280051Z 00000KT 3SM -SN BR FEW008 OVC019 M02/M03 A3004 RMK AO2 SLP177 VIS E-S 2 P0001 T10171033

More Conditions Fewer Conditions

10-Day Weather Forecast

Almanac

Astronomy

Nov. 27, 2014 Rise Set
Actual Time
Civil Twilight
Nautical Twilight
Astronomical Twilight
Moon
Length of Visible Light
Length of Day
Tomorrow will be .
, % of the Moon is Illuminated

Today's Extremes

State Highs State Lows

Community

WunderPhotos

Upload Photos

1,774,151 photos uploaded!

WunderBlogs® & News

Nearby

Air Quality

  Air Quality AQ Index Pollutant
Not available.

Snow Depth

Station Depth Elevation

Earthquake Activity

City Distance Mag. Time & Date
Minimum magnitude displayed is 2.5.

Coastal Water Temperatures

Place Temperature

Nearby Weather Stations